sensor_id;sensor_type;location;lat;lon;timestamp;P1;durP1;ratioP1;P2;durP2;ratioP2
12222;SDS011;6174;49.058;8.524;2024-03-07T06:16:11;26.97;;;24.07;;
12222;SDS011;6174;49.058;8.524;2024-03-07T06:18:39;27.17;;;24.23;;
12222;SDS011;6174;49.058;8.524;2024-03-07T06:21:06;25.37;;;22.73;;
12222;SDS011;6174;49.058;8.524;2024-03-07T06:23:45;25.37;;;22.87;;
12222;SDS011;6174;49.058;8.524;2024-03-07T06:26:24;25.80;;;23.20;;
12222;SDS011;6174;49.058;8.524;2024-03-07T06:29:02;24.13;;;21.73;;
12222;SDS011;6174;49.058;8.524;2024-03-07T06:31:31;23.40;;;21.00;;
12222;SDS011;6174;49.058;8.524;2024-03-07T06:33:59;23.50;;;21.20;;
12222;SDS011;6174;49.058;8.524;2024-03-07T06:36:28;23.37;;;20.97;;
12222;SDS011;6174;49.058;8.524;2024-03-07T06:38:55;23.60;;;20.60;;
12222;SDS011;6174;49.058;8.524;2024-03-07T06:41:22;23.17;;;20.73;;
12222;SDS011;6174;49.058;8.524;2024-03-07T06:43:50;22.17;;;19.87;;
12222;SDS011;6174;49.058;8.524;2024-03-07T06:46:18;22.37;;;20.17;;
12222;SDS011;6174;49.058;8.524;2024-03-07T06:48:47;23.23;;;20.93;;
12222;SDS011;6174;49.058;8.524;2024-03-07T06:51:14;22.67;;;20.33;;
12222;SDS011;6174;49.058;8.524;2024-03-07T06:53:42;23.17;;;20.87;;
12222;SDS011;6174;49.058;8.524;2024-03-07T06:56:10;22.97;;;20.63;;
12222;SDS011;6174;49.058;8.524;2024-03-07T06:58:37;22.57;;;20.27;;
12222;SDS011;6174;49.058;8.524;2024-03-07T07:01:04;21.37;;;19.27;;
12222;SDS011;6174;49.058;8.524;2024-03-07T07:03:34;22.33;;;19.97;;
12222;SDS011;6174;49.058;8.524;2024-03-07T07:06:03;20.53;;;18.53;;
12222;SDS011;6174;49.058;8.524;2024-03-07T07:08:32;21.07;;;18.97;;
12222;SDS011;6174;49.058;8.524;2024-03-07T07:10:59;20.93;;;18.73;;
12222;SDS011;6174;49.058;8.524;2024-03-07T07:13:26;19.77;;;17.77;;
12222;SDS011;6174;49.058;8.524;2024-03-07T07:15:54;19.90;;;17.87;;
12222;SDS011;6174;49.058;8.524;2024-03-07T07:18:21;19.90;;;17.80;;
12222;SDS011;6174;49.058;8.524;2024-03-07T07:20:48;20.00;;;18.07;;
12222;SDS011;6174;49.058;8.524;2024-03-07T07:23:18;19.17;;;17.33;;
12222;SDS011;6174;49.058;8.524;2024-03-07T07:25:45;19.13;;;17.10;;
12222;SDS011;6174;49.058;8.524;2024-03-07T07:28:12;19.57;;;17.77;;
12222;SDS011;6174;49.058;8.524;2024-03-07T07:30:40;19.30;;;17.30;;
12222;SDS011;6174;49.058;8.524;2024-03-07T07:33:08;17.97;;;16.10;;
12222;SDS011;6174;49.058;8.524;2024-03-07T07:35:35;18.00;;;16.20;;
12222;SDS011;6174;49.058;8.524;2024-03-07T07:38:02;17.33;;;15.73;;
12222;SDS011;6174;49.058;8.524;2024-03-07T07:40:33;17.13;;;15.53;;
12222;SDS011;6174;49.058;8.524;2024-03-07T07:43:03;17.43;;;15.73;;
12222;SDS011;6174;49.058;8.524;2024-03-07T07:45:32;15.80;;;14.30;;
12222;SDS011;6174;49.058;8.524;2024-03-07T07:48:00;16.37;;;14.77;;
12222;SDS011;6174;49.058;8.524;2024-03-07T07:50:27;16.47;;;14.87;;
12222;SDS011;6174;49.058;8.524;2024-03-07T07:52:55;15.53;;;14.10;;
12222;SDS011;6174;49.058;8.524;2024-03-07T07:55:23;14.60;;;13.20;;
12222;SDS011;6174;49.058;8.524;2024-03-07T07:57:52;16.00;;;14.50;;
12222;SDS011;6174;49.058;8.524;2024-03-07T08:00:20;14.13;;;12.93;;
12222;SDS011;6174;49.058;8.524;2024-03-07T08:02:49;14.63;;;13.23;;
12222;SDS011;6174;49.058;8.524;2024-03-07T08:05:17;14.70;;;13.27;;
12222;SDS011;6174;49.058;8.524;2024-03-07T08:07:44;15.57;;;14.07;;
12222;SDS011;6174;49.058;8.524;2024-03-07T08:10:12;16.33;;;14.67;;
12222;SDS011;6174;49.058;8.524;2024-03-07T08:12:40;15.47;;;14.07;;
12222;SDS011;6174;49.058;8.524;2024-03-07T08:15:10;15.73;;;14.23;;
12222;SDS011;6174;49.058;8.524;2024-03-07T08:17:40;15.23;;;13.83;;
12222;SDS011;6174;49.058;8.524;2024-03-07T08:20:10;16.33;;;14.73;;
12222;SDS011;6174;49.058;8.524;2024-03-07T08:22:38;15.00;;;13.60;;
12222;SDS011;6174;49.058;8.524;2024-03-07T08:25:06;15.20;;;13.70;;
12222;SDS011;6174;49.058;8.524;2024-03-07T08:27:35;15.50;;;14.00;;
12222;SDS011;6174;49.058;8.524;2024-03-07T08:30:03;14.87;;;13.40;;
12222;SDS011;6174;49.058;8.524;2024-03-07T08:32:33;15.53;;;13.93;;
12222;SDS011;6174;49.058;8.524;2024-03-07T08:35:02;13.93;;;12.70;;
12222;SDS011;6174;49.058;8.524;2024-03-07T08:37:33;13.53;;;12.23;;
12222;SDS011;6174;49.058;8.524;2024-03-07T08:40:01;14.73;;;13.43;;
12222;SDS011;6174;49.058;8.524;2024-03-07T08:42:34;14.67;;;13.27;;
12222;SDS011;6174;49.058;8.524;2024-03-07T08:45:01;14.40;;;13.10;;
12222;SDS011;6174;49.058;8.524;2024-03-07T08:47:29;13.57;;;12.37;;
12222;SDS011;6174;49.058;8.524;2024-03-07T08:49:59;14.43;;;13.03;;
12222;SDS011;6174;49.058;8.524;2024-03-07T08:52:33;15.37;;;14.00;;
12222;SDS011;6174;49.058;8.524;2024-03-07T08:55:20;13.97;;;12.67;;
12222;SDS011;6174;49.058;8.524;2024-03-07T08:57:49;15.37;;;13.97;;
12222;SDS011;6174;49.058;8.524;2024-03-07T09:00:21;13.87;;;12.67;;
12222;SDS011;6174;49.058;8.524;2024-03-07T09:02:49;13.67;;;12.33;;
12222;SDS011;6174;49.058;8.524;2024-03-07T09:05:19;14.10;;;12.80;;
12222;SDS011;6174;49.058;8.524;2024-03-07T09:07:47;14.90;;;13.40;;
12222;SDS011;6174;49.058;8.524;2024-03-07T09:10:14;14.80;;;13.40;;
12222;SDS011;6174;49.058;8.524;2024-03-07T09:12:41;14.90;;;13.40;;
12222;SDS011;6174;49.058;8.524;2024-03-07T09:15:09;15.37;;;12.97;;
12222;SDS011;6174;49.058;8.524;2024-03-07T09:17:42;13.57;;;12.37;;
12222;SDS011;6174;49.058;8.524;2024-03-07T09:20:12;14.43;;;13.00;;
12222;SDS011;6174;49.058;8.524;2024-03-07T09:22:47;14.10;;;12.80;;
12222;SDS011;6174;49.058;8.524;2024-03-07T09:25:15;14.20;;;12.90;;
12222;SDS011;6174;49.058;8.524;2024-03-07T09:27:51;14.20;;;12.90;;
12222;SDS011;6174;49.058;8.524;2024-03-07T09:30:19;14.93;;;13.53;;
12222;SDS011;6174;49.058;8.524;2024-03-07T09:32:50;13.67;;;12.33;;
12222;SDS011;6174;49.058;8.524;2024-03-07T09:35:23;14.80;;;13.30;;
12222;SDS011;6174;49.058;8.524;2024-03-07T09:45:19;14.03;;;12.73;;
12222;SDS011;6174;49.058;8.524;2024-03-07T09:47:53;15.00;;;13.10;;
12222;SDS011;6174;49.058;8.524;2024-03-07T09:50:30;14.53;;;13.13;;
12222;SDS011;6174;49.058;8.524;2024-03-07T09:52:57;14.67;;;13.37;;
12222;SDS011;6174;49.058;8.524;2024-03-07T09:55:28;14.87;;;13.47;;
12222;SDS011;6174;49.058;8.524;2024-03-07T09:57:56;14.97;;;13.47;;
12222;SDS011;6174;49.058;8.524;2024-03-07T10:00:40;15.87;;;14.43;;
12222;SDS011;6174;49.058;8.524;2024-03-07T10:03:08;15.90;;;14.40;;
12222;SDS011;6174;49.058;8.524;2024-03-07T10:05:38;15.77;;;14.17;;
12222;SDS011;6174;49.058;8.524;2024-03-07T10:08:06;15.90;;;14.40;;
12222;SDS011;6174;49.058;8.524;2024-03-07T10:10:34;16.93;;;15.20;;
12222;SDS011;6174;49.058;8.524;2024-03-07T10:13:01;17.40;;;15.80;;
12222;SDS011;6174;49.058;8.524;2024-03-07T10:15:35;17.77;;;15.97;;
12222;SDS011;6174;49.058;8.524;2024-03-07T10:18:24;17.00;;;15.40;;
12222;SDS011;6174;49.058;8.524;2024-03-07T10:20:53;16.73;;;15.07;;
12222;SDS011;6174;49.058;8.524;2024-03-07T10:23:20;16.93;;;15.37;;
12222;SDS011;6174;49.058;8.524;2024-03-07T10:25:49;16.70;;;14.90;;
12222;SDS011;6174;49.058;8.524;2024-03-07T10:28:19;17.30;;;15.67;;
12222;SDS011;6174;49.058;8.524;2024-03-07T10:30:49;18.67;;;16.23;;
12222;SDS011;6174;49.058;8.524;2024-03-07T10:33:20;19.03;;;17.20;;
12222;SDS011;6174;49.058;8.524;2024-03-07T10:35:58;17.53;;;15.83;;
12222;SDS011;6174;49.058;8.524;2024-03-07T10:38:26;17.30;;;15.60;;
12222;SDS011;6174;49.058;8.524;2024-03-07T10:43:42;18.37;;;16.47;;
12222;SDS011;6174;49.058;8.524;2024-03-07T10:46:12;18.27;;;16.47;;
12222;SDS011;6174;49.058;8.524;2024-03-07T10:48:42;19.10;;;17.30;;
12222;SDS011;6174;49.058;8.524;2024-03-07T10:51:13;17.90;;;16.13;;
12222;SDS011;6174;49.058;8.524;2024-03-07T10:53:59;18.37;;;16.50;;
12222;SDS011;6174;49.058;8.524;2024-03-07T10:56:42;19.93;;;17.83;;
12222;SDS011;6174;49.058;8.524;2024-03-07T10:59:20;17.87;;;16.27;;
12222;SDS011;6174;49.058;8.524;2024-03-07T11:01:53;19.20;;;17.30;;
12222;SDS011;6174;49.058;8.524;2024-03-07T11:04:26;18.67;;;16.80;;
12222;SDS011;6174;49.058;8.524;2024-03-07T11:06:54;19.00;;;17.10;;
12222;SDS011;6174;49.058;8.524;2024-03-07T11:09:24;19.67;;;17.67;;
12222;SDS011;6174;49.058;8.524;2024-03-07T11:11:55;19.43;;;17.50;;
12222;SDS011;6174;49.058;8.524;2024-03-07T11:14:25;19.27;;;17.40;;
12222;SDS011;6174;49.058;8.524;2024-03-07T11:16:53;18.67;;;16.83;;
12222;SDS011;6174;49.058;8.524;2024-03-07T11:19:25;19.00;;;17.23;;
12222;SDS011;6174;49.058;8.524;2024-03-07T11:21:53;19.20;;;17.23;;
12222;SDS011;6174;49.058;8.524;2024-03-07T11:27:33;18.67;;;16.90;;
12222;SDS011;6174;49.058;8.524;2024-03-07T11:32:35;19.37;;;17.47;;
12222;SDS011;6174;49.058;8.524;2024-03-07T11:41:12;18.93;;;16.63;;
12222;SDS011;6174;49.058;8.524;2024-03-07T11:43:55;18.57;;;16.67;;
12222;SDS011;6174;49.058;8.524;2024-03-07T11:46:24;18.53;;;16.70;;
12222;SDS011;6174;49.058;8.524;2024-03-07T11:48:54;19.13;;;17.23;;
12222;SDS011;6174;49.058;8.524;2024-03-07T11:51:37;18.50;;;16.53;;
12222;SDS011;6174;49.058;8.524;2024-03-07T11:54:04;19.33;;;17.37;;
12222;SDS011;6174;49.058;8.524;2024-03-07T11:56:31;18.17;;;16.47;;
12222;SDS011;6174;49.058;8.524;2024-03-07T11:59:14;18.87;;;16.90;;
12222;SDS011;6174;49.058;8.524;2024-03-07T13:29:16;17.57;;;15.77;;
12222;SDS011;6174;49.058;8.524;2024-03-07T15:56:42;19.23;;;17.17;;
12222;SDS011;6174;49.058;8.524;2024-03-07T16:02:10;19.50;;;17.50;;
12222;SDS011;6174;49.058;8.524;2024-03-07T18:46:09;17.03;;;15.43;;
12222;SDS011;6174;49.058;8.524;2024-03-07T18:48:37;18.07;;;15.77;;
12222;SDS011;6174;49.058;8.524;2024-03-07T18:51:04;17.17;;;15.37;;
12222;SDS011;6174;49.058;8.524;2024-03-07T18:53:33;17.13;;;15.53;;
12222;SDS011;6174;49.058;8.524;2024-03-07T18:56:00;17.57;;;15.87;;
12222;SDS011;6174;49.058;8.524;2024-03-07T18:58:34;16.63;;;15.03;;
12222;SDS011;6174;49.058;8.524;2024-03-07T19:01:03;16.33;;;14.67;;
12222;SDS011;6174;49.058;8.524;2024-03-07T19:03:33;16.07;;;14.47;;
12222;SDS011;6174;49.058;8.524;2024-03-07T19:06:00;16.57;;;14.97;;
12222;SDS011;6174;49.058;8.524;2024-03-07T19:08:26;16.67;;;14.90;;
12222;SDS011;6174;49.058;8.524;2024-03-07T19:10:55;15.63;;;14.07;;
12222;SDS011;6174;49.058;8.524;2024-03-07T19:13:23;16.07;;;14.37;;
12222;SDS011;6174;49.058;8.524;2024-03-07T19:15:52;17.57;;;15.77;;
12222;SDS011;6174;49.058;8.524;2024-03-07T19:18:20;17.30;;;14.63;;
12222;SDS011;6174;49.058;8.524;2024-03-07T19:20:49;18.20;;;15.33;;
12222;SDS011;6174;49.058;8.524;2024-03-07T19:23:19;16.50;;;14.87;;
12222;SDS011;6174;49.058;8.524;2024-03-07T19:25:46;16.77;;;15.07;;
12222;SDS011;6174;49.058;8.524;2024-03-07T19:28:15;16.97;;;15.17;;
12222;SDS011;6174;49.058;8.524;2024-03-07T19:30:43;16.80;;;15.10;;
12222;SDS011;6174;49.058;8.524;2024-03-07T19:33:11;16.63;;;14.83;;
12222;SDS011;6174;49.058;8.524;2024-03-07T19:35:41;16.87;;;15.17;;
12222;SDS011;6174;49.058;8.524;2024-03-07T19:38:10;15.83;;;14.27;;
12222;SDS011;6174;49.058;8.524;2024-03-07T19:40:37;16.83;;;15.13;;
12222;SDS011;6174;49.058;8.524;2024-03-07T19:43:04;16.53;;;14.93;;
12222;SDS011;6174;49.058;8.524;2024-03-07T19:45:32;16.23;;;14.63;;
12222;SDS011;6174;49.058;8.524;2024-03-07T19:48:01;16.17;;;14.57;;
12222;SDS011;6174;49.058;8.524;2024-03-07T19:50:29;17.13;;;14.43;;
12222;SDS011;6174;49.058;8.524;2024-03-07T19:52:56;16.73;;;15.03;;
12222;SDS011;6174;49.058;8.524;2024-03-07T19:55:26;17.50;;;15.70;;
12222;SDS011;6174;49.058;8.524;2024-03-07T19:57:57;16.57;;;14.90;;
12222;SDS011;6174;49.058;8.524;2024-03-07T20:00:23;17.67;;;15.83;;
12222;SDS011;6174;49.058;8.524;2024-03-07T20:02:57;16.57;;;14.93;;
12222;SDS011;6174;49.058;8.524;2024-03-07T20:05:25;16.57;;;14.87;;
12222;SDS011;6174;49.058;8.524;2024-03-07T20:07:53;16.70;;;15.10;;
12222;SDS011;6174;49.058;8.524;2024-03-07T20:10:22;16.20;;;14.60;;
12222;SDS011;6174;49.058;8.524;2024-03-07T20:12:51;16.33;;;14.73;;
12222;SDS011;6174;49.058;8.524;2024-03-07T20:15:18;16.23;;;14.63;;
12222;SDS011;6174;49.058;8.524;2024-03-07T20:17:45;15.67;;;14.17;;
12222;SDS011;6174;49.058;8.524;2024-03-07T20:20:13;15.60;;;14.10;;
12222;SDS011;6174;49.058;8.524;2024-03-07T20:22:41;15.30;;;13.80;;
12222;SDS011;6174;49.058;8.524;2024-03-07T20:25:08;16.43;;;14.73;;
12222;SDS011;6174;49.058;8.524;2024-03-07T20:27:39;15.40;;;13.90;;
12222;SDS011;6174;49.058;8.524;2024-03-07T20:30:10;15.03;;;13.53;;
12222;SDS011;6174;49.058;8.524;2024-03-07T20:32:40;15.43;;;13.83;;
12222;SDS011;6174;49.058;8.524;2024-03-07T20:35:07;16.27;;;14.60;;
12222;SDS011;6174;49.058;8.524;2024-03-07T20:37:36;14.80;;;13.30;;
12222;SDS011;6174;49.058;8.524;2024-03-07T20:40:04;14.77;;;13.40;;
12222;SDS011;6174;49.058;8.524;2024-03-07T20:42:33;15.43;;;13.93;;
12222;SDS011;6174;49.058;8.524;2024-03-07T20:45:03;15.23;;;13.70;;
12222;SDS011;6174;49.058;8.524;2024-03-07T20:47:34;14.93;;;13.53;;
12222;SDS011;6174;49.058;8.524;2024-03-07T20:50:02;14.13;;;12.73;;
12222;SDS011;6174;49.058;8.524;2024-03-07T20:52:33;15.30;;;13.73;;
12222;SDS011;6174;49.058;8.524;2024-03-07T20:55:02;15.20;;;13.67;;
12222;SDS011;6174;49.058;8.524;2024-03-07T20:57:31;14.80;;;13.40;;
12222;SDS011;6174;49.058;8.524;2024-03-07T20:59:58;14.67;;;13.23;;
12222;SDS011;6174;49.058;8.524;2024-03-07T21:02:28;15.50;;;13.90;;
12222;SDS011;6174;49.058;8.524;2024-03-07T21:04:57;14.43;;;13.03;;
12222;SDS011;6174;49.058;8.524;2024-03-07T21:07:24;14.47;;;13.07;;
12222;SDS011;6174;49.058;8.524;2024-03-07T21:09:51;14.23;;;12.80;;
12222;SDS011;6174;49.058;8.524;2024-03-07T21:12:18;13.53;;;12.23;;
12222;SDS011;6174;49.058;8.524;2024-03-07T21:14:45;14.60;;;13.10;;
12222;SDS011;6174;49.058;8.524;2024-03-07T21:17:11;14.53;;;13.07;;
12222;SDS011;6174;49.058;8.524;2024-03-07T21:19:39;14.30;;;12.80;;
12222;SDS011;6174;49.058;8.524;2024-03-07T21:22:07;14.90;;;13.40;;
12222;SDS011;6174;49.058;8.524;2024-03-07T21:24:34;14.53;;;13.00;;
12222;SDS011;6174;49.058;8.524;2024-03-07T21:27:00;13.27;;;11.77;;
12222;SDS011;6174;49.058;8.524;2024-03-07T21:29:27;13.40;;;11.90;;
12222;SDS011;6174;49.058;8.524;2024-03-07T21:31:54;13.70;;;12.37;;
12222;SDS011;6174;49.058;8.524;2024-03-07T21:34:21;13.93;;;12.63;;
12222;SDS011;6174;49.058;8.524;2024-03-07T21:36:48;13.93;;;12.43;;
12222;SDS011;6174;49.058;8.524;2024-03-07T21:39:16;13.90;;;12.50;;
12222;SDS011;6174;49.058;8.524;2024-03-07T21:41:49;14.30;;;12.80;;
12222;SDS011;6174;49.058;8.524;2024-03-07T21:44:16;13.83;;;12.43;;
12222;SDS011;6174;49.058;8.524;2024-03-07T21:46:43;16.17;;;13.43;;
12222;SDS011;6174;49.058;8.524;2024-03-07T21:49:09;13.10;;;11.80;;
